createdAt,value
2019-02-07T00:02:11.166Z,20.60
2019-02-07T00:04:39.540Z,25.80
2019-02-07T00:07:08.387Z,31.57
2019-02-07T00:09:36.706Z,26.40
2019-02-07T00:12:05.215Z,21.63
2019-02-07T00:14:39.745Z,20.17
2019-02-07T00:17:02.375Z,19.87
2019-02-07T00:19:30.793Z,25.03
2019-02-07T00:21:59.424Z,21.83
2019-02-07T00:24:27.788Z,27.10
2019-02-07T00:26:56.194Z,27.53
2019-02-07T00:29:25.190Z,29.43
2019-02-07T00:31:53.570Z,20.40
2019-02-07T00:34:22.184Z,21.17
2019-02-07T00:36:50.912Z,19.17
2019-02-07T00:39:19.654Z,21.57
2019-02-07T00:41:48.066Z,29.00
2019-02-07T00:44:16.817Z,19.60
2019-02-07T00:46:45.167Z,21.27
2019-02-07T00:49:13.497Z,24.87
2019-02-07T00:51:42.111Z,21.93
2019-02-07T00:54:10.429Z,26.13
2019-02-07T00:56:39.829Z,26.33
2019-02-07T00:59:07.529Z,23.07
2019-02-07T01:01:36.064Z,21.23
2019-02-07T01:04:04.789Z,22.50
2019-02-07T01:06:34.369Z,25.53
2019-02-07T01:09:02.790Z,30.67
2019-02-07T01:11:31.153Z,16.67
2019-02-07T01:13:59.965Z,25.73
2019-02-07T01:16:28.492Z,14.17
2019-02-07T01:18:57.024Z,22.53
2019-02-07T01:21:25.726Z,20.30
2019-02-07T01:23:54.369Z,24.63
2019-02-07T01:26:22.738Z,24.07
2019-02-07T01:28:51.608Z,20.63
2019-02-07T01:31:20.053Z,21.23
2019-02-07T01:33:48.385Z,26.33
2019-02-07T01:36:17.355Z,20.63
2019-02-07T01:38:45.683Z,17.07
2019-02-07T01:41:14.045Z,18.23
2019-02-07T01:43:42.646Z,24.23
2019-02-07T01:46:11.088Z,20.33
2019-02-07T01:48:39.457Z,17.50
2019-02-07T01:51:08.235Z,18.40
2019-02-07T01:53:36.921Z,21.23
2019-02-07T01:56:05.545Z,23.53
2019-02-07T01:58:34.597Z,17.17
2019-02-07T02:01:03.236Z,22.13
2019-02-07T02:03:31.536Z,19.60
2019-02-07T02:06:00.227Z,18.33
2019-02-07T02:08:28.671Z,22.63
2019-02-07T02:10:57.022Z,17.97
2019-02-07T02:13:25.634Z,10.97
2019-02-07T02:15:54.115Z,20.90
2019-02-07T02:18:22.751Z,21.17
2019-02-07T02:20:51.532Z,20.93
2019-02-07T02:23:19.877Z,16.30
2019-02-07T02:25:48.394Z,12.63
2019-02-07T02:28:17.130Z,20.03
2019-02-07T02:30:45.653Z,17.03
2019-02-07T02:33:14.042Z,20.33
2019-02-07T02:35:42.879Z,16.83
2019-02-07T02:38:11.223Z,16.00
2019-02-07T02:40:39.638Z,19.83
2019-02-07T02:43:08.315Z,20.40
2019-02-07T02:45:37.814Z,16.03
2019-02-07T02:48:05.525Z,18.43
2019-02-07T02:50:34.378Z,21.10
2019-02-07T02:53:02.783Z,21.53
2019-02-07T02:55:36.329Z,17.67
2019-02-07T02:58:04.855Z,18.23
2019-02-07T03:01:41.435Z,17.13
2019-02-07T03:04:20.498Z,16.60
2019-02-07T03:07:26.626Z,18.97
2019-02-07T03:10:06.189Z,23.87
2019-02-07T03:12:41.788Z,20.43
2019-02-07T03:15:17.209Z,22.67
2019-02-07T03:17:51.930Z,20.70
2019-02-07T03:22:28.363Z,23.57
2019-02-07T03:25:02.052Z,13.30
2019-02-07T03:29:40.767Z,26.20
2019-02-07T03:34:16.869Z,24.13
2019-02-07T03:36:58.677Z,29.63
2019-02-07T03:39:35.670Z,33.57
2019-02-07T03:44:12.290Z,27.30
2019-02-07T03:46:53.741Z,25.57
2019-02-07T03:49:27.776Z,31.23
2019-02-07T03:53:03.731Z,29.23
2019-02-07T03:55:43.430Z,35.37
2019-02-07T03:58:21.958Z,35.53
2019-02-07T04:00:55.104Z,35.23
2019-02-07T04:03:31.413Z,34.93
2019-02-07T04:08:06.624Z,34.70
2019-02-07T04:11:43.653Z,32.43
2019-02-07T04:14:21.390Z,26.10
2019-02-07T04:17:26.939Z,30.67
2019-02-07T04:20:01.884Z,23.23
2019-02-07T04:22:35.744Z,34.13
2019-02-07T04:25:09.906Z,31.83
2019-02-07T04:27:44.372Z,32.23
2019-02-07T04:30:20.165Z,39.17
2019-02-07T04:32:57.763Z,31.83
2019-02-07T04:36:07.758Z,22.63
2019-02-07T04:38:55.226Z,27.23
2019-02-07T04:41:29.550Z,27.07
2019-02-07T04:46:10.840Z,35.93
2019-02-07T04:48:45.775Z,32.80
2019-02-07T04:52:16.584Z,36.50
2019-02-07T04:54:55.321Z,46.70
2019-02-07T04:57:27.857Z,32.70
2019-02-07T05:00:00.695Z,39.87
2019-02-07T05:02:34.440Z,33.90
2019-02-07T05:06:06.716Z,38.37
2019-02-07T05:08:39.394Z,44.83
2019-02-07T05:11:43.199Z,47.37
2019-02-07T05:14:15.814Z,43.80
2019-02-07T05:16:50.300Z,39.33
2019-02-07T05:19:53.818Z,36.70
2019-02-07T05:22:27.911Z,41.30
2019-02-07T05:27:02.907Z,34.50
2019-02-07T05:31:38.720Z,32.93
2019-02-07T05:34:15.152Z,38.57
2019-02-07T05:36:50.084Z,33.50
2019-02-07T05:39:23.820Z,39.07
2019-02-07T05:42:00.803Z,31.10
2019-02-07T05:44:34.167Z,28.03
2019-02-07T05:47:10.151Z,28.13
2019-02-07T05:49:44.614Z,34.07
2019-02-07T05:52:21.656Z,26.20
2019-02-07T05:54:55.360Z,21.90
2019-02-07T05:57:33.320Z,27.30
2019-02-07T06:00:07.304Z,22.17
2019-02-07T06:02:41.067Z,30.77
2019-02-07T06:05:14.729Z,30.83
2019-02-07T06:07:50.626Z,30.73
2019-02-07T06:10:33.990Z,28.57
2019-02-07T06:13:14.900Z,23.33
2019-02-07T06:15:48.743Z,31.23
2019-02-07T06:18:22.843Z,22.30
2019-02-07T06:21:27.344Z,24.10
2019-02-07T06:24:03.080Z,27.23
2019-02-07T06:26:36.836Z,26.37
2019-02-07T06:29:13.803Z,27.17
2019-02-07T06:33:55.054Z,28.07
2019-02-07T06:36:32.788Z,27.00
2019-02-07T06:39:09.336Z,18.90
2019-02-07T06:41:48.138Z,23.53
2019-02-07T06:44:31.586Z,20.50
2019-02-07T06:47:13.581Z,25.50
2019-02-07T06:50:43.425Z,24.70
2019-02-07T06:53:27.052Z,26.07
2019-02-07T06:56:17.646Z,12.23
2019-02-07T06:59:21.979Z,16.50
2019-02-07T07:04:00.304Z,14.60
2019-02-07T07:06:41.139Z,16.67
2019-02-07T07:11:17.081Z,18.53
2019-02-07T07:13:51.847Z,14.10
2019-02-07T07:18:32.298Z,10.60
2019-02-07T07:21:12.350Z,9.73
2019-02-07T07:23:46.329Z,15.27
2019-02-07T07:26:20.847Z,10.97
2019-02-07T07:29:09.579Z,11.93
2019-02-07T07:31:42.561Z,9.77
2019-02-07T07:34:17.107Z,12.47
2019-02-07T07:36:52.995Z,9.73
2019-02-07T07:39:28.887Z,8.80
2019-02-07T07:42:02.798Z,7.90
2019-02-07T07:44:40.678Z,6.63
2019-02-07T07:48:16.847Z,7.07
2019-02-07T07:50:54.395Z,11.57
2019-02-07T07:53:37.563Z,6.73
2019-02-07T07:56:26.546Z,9.83
2019-02-07T07:59:00.225Z,8.37
2019-02-07T08:01:34.336Z,8.10
2019-02-07T08:04:07.855Z,8.10
2019-02-07T08:06:41.433Z,7.27
2019-02-07T08:10:21.306Z,8.87
2019-02-07T08:12:54.638Z,6.27
2019-02-07T08:15:28.506Z,7.97
2019-02-07T08:18:01.182Z,8.03
2019-02-07T08:22:38.896Z,6.47
2019-02-07T08:25:13.056Z,5.03
2019-02-07T08:27:56.657Z,6.70
2019-02-07T08:30:47.318Z,6.70
2019-02-07T08:33:22.884Z,5.17
2019-02-07T08:35:58.432Z,4.30
2019-02-07T08:38:34.139Z,5.13
2019-02-07T08:41:14.668Z,10.23
2019-02-07T08:43:48.880Z,3.97
2019-02-07T08:46:26.416Z,7.10
2019-02-07T08:49:01.107Z,4.63
2019-02-07T08:51:41.112Z,7.60
2019-02-07T08:54:19.817Z,5.37
2019-02-07T08:57:11.352Z,3.07
2019-02-07T08:59:44.535Z,4.87
2019-02-07T09:02:21.024Z,7.00
2019-02-07T09:04:53.962Z,4.23
2019-02-07T09:07:32.233Z,6.00
2019-02-07T09:10:04.796Z,4.47
2019-02-07T09:12:38.575Z,9.07
2019-02-07T09:15:16.098Z,5.53
2019-02-07T09:17:51.579Z,3.97
2019-02-07T09:20:25.454Z,4.07
2019-02-07T09:22:58.021Z,4.33
2019-02-07T09:26:02.184Z,3.13
2019-02-07T09:30:40.376Z,6.53
2019-02-07T09:35:22.046Z,5.43
2019-02-07T09:37:59.526Z,3.87
2019-02-07T09:40:33.297Z,4.97
2019-02-07T09:43:07.398Z,6.87
2019-02-07T09:46:39.443Z,8.03
2019-02-07T09:49:13.299Z,5.87
2019-02-07T09:51:47.186Z,4.87
2019-02-07T09:54:20.897Z,5.13
2019-02-07T09:57:01.933Z,3.40
2019-02-07T09:59:49.672Z,4.43
2019-02-07T10:02:42.019Z,5.37
2019-02-07T10:05:16.007Z,3.17
2019-02-07T10:07:53.826Z,3.53
2019-02-07T10:10:28.471Z,3.27
2019-02-07T10:13:13.302Z,4.83
2019-02-07T10:17:51.300Z,4.00
2019-02-07T10:20:31.034Z,2.83
2019-02-07T10:23:04.781Z,5.43
2019-02-07T10:25:43.345Z,7.50
2019-02-07T10:28:26.013Z,2.97
2019-02-07T10:30:58.902Z,3.10
2019-02-07T10:33:31.450Z,3.93
2019-02-07T10:38:11.987Z,3.17
2019-02-07T10:40:50.447Z,3.43
2019-02-07T10:43:28.157Z,5.53
2019-02-07T10:46:12.869Z,2.90
2019-02-07T10:48:48.646Z,2.83
2019-02-07T10:52:27.372Z,4.00
2019-02-07T10:55:02.975Z,6.13
2019-02-07T10:57:37.463Z,2.97
2019-02-07T11:00:19.542Z,5.07
2019-02-07T11:02:58.220Z,6.20
2019-02-07T11:05:32.867Z,7.47
2019-02-07T11:10:07.864Z,3.83
2019-02-07T11:14:43.695Z,7.20
2019-02-07T11:18:20.577Z,3.90
2019-02-07T11:20:54.799Z,4.63
2019-02-07T11:23:28.389Z,6.07
2019-02-07T11:26:33.145Z,4.10
2019-02-07T11:29:06.875Z,5.67
2019-02-07T11:31:44.692Z,7.87
2019-02-07T11:34:18.430Z,4.40
2019-02-07T11:37:02.933Z,5.03
2019-02-07T11:39:41.517Z,6.87
2019-02-07T11:42:20.424Z,5.40
2019-02-07T11:44:53.827Z,6.03
2019-02-07T11:47:27.631Z,5.63
2019-02-07T11:50:03.207Z,12.10
2019-02-07T11:54:38.517Z,22.07
2019-02-07T11:58:19.628Z,9.37
2019-02-07T12:02:57.875Z,6.83
2019-02-07T12:05:31.614Z,6.63
2019-02-07T12:10:11.130Z,12.03
2019-02-07T12:12:44.875Z,3.43
2019-02-07T12:15:18.527Z,10.97
2019-02-07T12:17:51.135Z,13.60
2019-02-07T12:20:40.663Z,4.00
2019-02-07T12:23:14.649Z,7.20
2019-02-07T12:25:48.863Z,3.57
2019-02-07T12:28:22.683Z,4.60
2019-02-07T12:30:57.399Z,9.20
2019-02-07T12:33:31.014Z,8.70
2019-02-07T12:38:08.275Z,9.50
2019-02-07T12:40:45.804Z,10.37
2019-02-07T12:43:19.789Z,12.63
2019-02-07T12:46:07.415Z,12.23
2019-02-07T12:48:42.962Z,9.23
2019-02-07T12:51:15.542Z,8.83
2019-02-07T12:53:52.156Z,6.07
2019-02-07T12:56:39.838Z,8.80
2019-02-07T12:59:32.392Z,7.03
2019-02-07T13:02:06.290Z,10.20
2019-02-07T13:04:40.199Z,7.63
2019-02-07T13:07:13.930Z,7.27
2019-02-07T13:09:52.926Z,16.37
2019-02-07T13:14:27.896Z,6.47
2019-02-07T13:17:01.943Z,9.47
2019-02-07T13:20:07.820Z,9.23
2019-02-07T13:22:41.872Z,11.20
2019-02-07T13:25:17.473Z,15.07
2019-02-07T13:27:53.358Z,10.43
2019-02-07T13:30:27.262Z,3.87
2019-02-07T13:33:04.903Z,10.97
2019-02-07T13:36:41.763Z,10.80
2019-02-07T13:39:33.768Z,11.80
2019-02-07T13:42:06.418Z,6.10
2019-02-07T13:44:40.161Z,7.47
2019-02-07T13:47:13.064Z,12.30
2019-02-07T13:49:52.077Z,9.37
2019-02-07T13:52:26.177Z,13.90
2019-02-07T13:55:00.133Z,8.70
2019-02-07T13:57:33.761Z,9.90
2019-02-07T14:02:10.669Z,5.47
2019-02-07T14:04:44.181Z,9.00
2019-02-07T14:07:16.957Z,17.00
2019-02-07T14:09:52.458Z,7.77
2019-02-07T14:14:28.867Z,17.87
2019-02-07T14:19:05.142Z,7.23
2019-02-07T14:21:39.110Z,11.10
2019-02-07T14:24:16.630Z,9.63
2019-02-07T14:26:50.185Z,6.80
2019-02-07T14:29:26.607Z,6.67
2019-02-07T14:33:02.451Z,9.43
2019-02-07T14:35:41.879Z,6.37
2019-02-07T14:38:15.816Z,11.07
2019-02-07T14:41:03.545Z,12.43
2019-02-07T14:43:38.246Z,12.03
2019-02-07T14:46:11.134Z,15.67
2019-02-07T14:48:39.898Z,7.77
2019-02-07T14:51:08.227Z,9.53
2019-02-07T14:53:38.197Z,11.40
2019-02-07T14:56:06.711Z,10.73
2019-02-07T14:58:35.005Z,10.33
2019-02-07T15:01:03.431Z,11.80
2019-02-07T15:03:32.151Z,12.57
2019-02-07T15:06:00.579Z,8.63
2019-02-07T15:08:28.891Z,12.00
2019-02-07T15:10:57.375Z,14.60
2019-02-07T15:13:25.765Z,16.17
2019-02-07T15:15:54.093Z,12.63
2019-02-07T15:18:22.710Z,7.47
2019-02-07T15:20:51.066Z,9.20
2019-02-07T15:23:19.457Z,15.30
2019-02-07T15:25:48.075Z,8.83
2019-02-07T15:28:16.399Z,19.83
2019-02-07T15:30:44.767Z,13.97
2019-02-07T15:33:13.460Z,11.20
2019-02-07T15:35:44.790Z,11.53
2019-02-07T15:38:13.140Z,17.60
2019-02-07T15:40:41.597Z,13.80
2019-02-07T15:43:10.773Z,14.17
2019-02-07T15:45:39.146Z,16.93
2019-02-07T15:48:08.170Z,12.57
2019-02-07T15:50:38.238Z,20.93
2019-02-07T15:53:05.085Z,13.33
2019-02-07T15:55:33.778Z,13.03
2019-02-07T15:58:02.539Z,15.97
2019-02-07T16:00:36.374Z,11.07
2019-02-07T16:03:08.631Z,12.27
2019-02-07T16:05:37.421Z,17.30
2019-02-07T16:08:05.773Z,14.73
2019-02-07T16:10:34.091Z,19.97
2019-02-07T16:13:02.872Z,14.50
2019-02-07T16:15:31.258Z,13.33
2019-02-07T16:17:59.637Z,18.73
2019-02-07T16:20:28.221Z,14.47
2019-02-07T16:22:58.960Z,12.97
2019-02-07T16:25:24.939Z,13.97
2019-02-07T16:27:53.395Z,12.20
2019-02-07T16:30:21.752Z,14.67
2019-02-07T16:32:50.076Z,13.97
2019-02-07T16:35:18.880Z,8.13
2019-02-07T16:37:47.358Z,13.90
2019-02-07T16:40:15.900Z,9.87
2019-02-07T16:42:44.436Z,11.33
2019-02-07T16:45:14.466Z,7.80
2019-02-07T16:47:42.895Z,15.03
2019-02-07T16:50:13.892Z,23.90
2019-02-07T16:52:42.226Z,12.80
2019-02-07T16:55:11.070Z,18.10
2019-02-07T16:57:39.581Z,8.37
2019-02-07T17:00:18.719Z,12.37
2019-02-07T17:02:47.311Z,9.23
2019-02-07T17:05:16.091Z,14.30
2019-02-07T17:07:44.410Z,11.87
2019-02-07T17:10:13.873Z,13.27
2019-02-07T17:12:42.215Z,15.87
2019-02-07T17:15:12.298Z,14.97
2019-02-07T17:17:40.769Z,10.90
2019-02-07T17:20:14.617Z,15.03
2019-02-07T17:22:42.155Z,14.10
2019-02-07T17:25:10.634Z,16.10
2019-02-07T17:27:39.003Z,12.03
2019-02-07T17:30:12.833Z,11.97
2019-02-07T17:32:41.188Z,12.73
2019-02-07T17:35:09.873Z,12.30
2019-02-07T17:37:38.312Z,11.00
2019-02-07T17:40:09.990Z,11.87
2019-02-07T17:42:38.478Z,23.97
2019-02-07T17:45:08.156Z,16.77
2019-02-07T17:47:36.478Z,17.77
2019-02-07T17:50:08.252Z,24.60
2019-02-07T17:52:36.689Z,14.73
2019-02-07T17:55:07.519Z,17.97
2019-02-07T17:57:35.901Z,23.80
2019-02-07T18:00:08.400Z,21.17
2019-02-07T18:02:36.884Z,15.00
2019-02-07T18:05:05.500Z,14.77
2019-02-07T18:07:34.152Z,16.80
2019-02-07T18:10:02.527Z,19.60
2019-02-07T18:12:31.144Z,12.97
2019-02-07T18:14:59.564Z,13.13
2019-02-07T18:17:27.966Z,11.17
2019-02-07T18:19:56.376Z,10.87
2019-02-07T18:22:24.798Z,11.73
2019-02-07T18:24:53.172Z,8.73
2019-02-07T18:27:21.632Z,7.50
2019-02-07T18:29:50.167Z,9.70
2019-02-07T18:32:18.566Z,11.10
2019-02-07T18:34:46.883Z,12.60
2019-02-07T18:37:15.451Z,9.33
2019-02-07T18:39:43.800Z,9.73
2019-02-07T18:42:12.092Z,14.43
2019-02-07T18:44:40.609Z,9.23
2019-02-07T18:47:09.117Z,13.13
2019-02-07T18:49:37.451Z,13.70
2019-02-07T18:52:05.901Z,10.83
2019-02-07T18:54:34.310Z,11.50
2019-02-07T18:57:02.687Z,10.43
2019-02-07T18:59:31.305Z,9.47
2019-02-07T19:01:59.727Z,9.80
2019-02-07T19:04:28.047Z,9.80
2019-02-07T19:06:56.596Z,11.97
2019-02-07T19:09:24.928Z,6.87
2019-02-07T19:11:53.338Z,8.00
2019-02-07T19:14:21.887Z,9.37
2019-02-07T19:16:50.225Z,8.27
2019-02-07T19:19:18.578Z,10.50
2019-02-07T19:21:56.873Z,13.20
2019-02-07T19:24:15.517Z,7.87
2019-02-07T19:26:43.863Z,7.10
2019-02-07T19:29:12.387Z,7.70
2019-02-07T19:31:40.960Z,13.30
2019-02-07T19:34:09.317Z,5.87
2019-02-07T19:36:37.898Z,5.57
2019-02-07T19:39:08.991Z,7.07
2019-02-07T19:41:37.384Z,3.53
2019-02-07T19:44:06.103Z,4.20
2019-02-07T19:46:34.489Z,7.90
2019-02-07T19:49:02.808Z,5.50
2019-02-07T19:51:31.523Z,6.47
2019-02-07T19:53:59.955Z,5.73
2019-02-07T19:56:28.529Z,6.20
2019-02-07T19:58:57.136Z,4.67
2019-02-07T20:01:25.472Z,3.13
2019-02-07T20:03:53.882Z,3.57
2019-02-07T20:06:22.346Z,3.80
2019-02-07T20:08:50.732Z,2.60
2019-02-07T20:11:19.161Z,2.17
2019-02-07T20:13:48.025Z,1.77
2019-02-07T20:16:16.526Z,1.90
2019-02-07T20:18:44.893Z,1.63
2019-02-07T20:21:13.472Z,3.07
2019-02-07T20:23:41.979Z,1.90
2019-02-07T20:26:10.377Z,2.07
2019-02-07T20:28:39.101Z,2.73
2019-02-07T20:31:07.466Z,1.60
2019-02-07T20:33:36.101Z,3.03
2019-02-07T20:36:05.097Z,1.97
2019-02-07T20:38:33.428Z,1.40
2019-02-07T20:41:01.846Z,2.63
2019-02-07T20:43:30.273Z,5.20
2019-02-07T20:45:58.918Z,2.83
2019-02-07T20:48:27.354Z,2.37
2019-02-07T20:50:57.660Z,3.40
2019-02-07T20:53:24.569Z,3.70
2019-02-07T20:55:53.195Z,3.03
2019-02-07T20:58:22.028Z,5.00
2019-02-07T21:00:50.541Z,4.97
2019-02-07T21:03:18.856Z,3.60
2019-02-07T21:05:47.645Z,3.73
2019-02-07T21:08:16.083Z,5.27
2019-02-07T21:10:44.404Z,4.77
2019-02-07T21:13:12.823Z,6.77
2019-02-07T21:15:41.181Z,4.13
2019-02-07T21:18:09.516Z,6.10
2019-02-07T21:20:38.034Z,5.67
2019-02-07T21:23:06.659Z,8.37
2019-02-07T21:25:42.782Z,7.57
2019-02-07T21:28:11.471Z,11.63
2019-02-07T21:30:39.820Z,18.73
2019-02-07T21:33:08.406Z,17.70
2019-02-07T21:35:36.730Z,18.97
2019-02-07T21:38:05.406Z,17.67
2019-02-07T21:40:33.892Z,21.17
2019-02-07T21:43:02.252Z,32.77
2019-02-07T21:45:30.602Z,27.80
2019-02-07T21:47:59.193Z,21.87
2019-02-07T21:50:28.693Z,30.77
2019-02-07T21:52:57.064Z,41.57
2019-02-07T21:55:27.768Z,26.70
2019-02-07T21:57:56.270Z,24.70
2019-02-07T22:00:26.992Z,30.63
2019-02-07T22:02:56.128Z,39.90
2019-02-07T22:05:24.505Z,39.83
2019-02-07T22:07:52.898Z,39.33
2019-02-07T22:10:21.716Z,38.00
2019-02-07T22:12:50.020Z,21.73
2019-02-07T22:15:19.964Z,34.87
2019-02-07T22:17:48.674Z,34.60
2019-02-07T22:20:18.930Z,24.03
2019-02-07T22:22:49.343Z,42.63
2019-02-07T22:25:15.937Z,27.77
2019-02-07T22:27:44.324Z,48.83
2019-02-07T22:30:15.834Z,29.97
2019-02-07T22:32:44.535Z,45.53
2019-02-07T22:35:12.974Z,34.43
2019-02-07T22:37:41.357Z,27.80
2019-02-07T22:40:13.648Z,40.43
2019-02-07T22:42:47.769Z,54.10
2019-02-07T22:45:11.225Z,46.30
2019-02-07T22:47:39.970Z,51.03
2019-02-07T22:50:12.743Z,42.53
2019-02-07T22:52:41.361Z,36.80
2019-02-07T22:55:09.984Z,52.50
2019-02-07T22:57:38.351Z,43.00
2019-02-07T23:00:16.940Z,58.20
2019-02-07T23:02:45.317Z,31.53
2019-02-07T23:05:13.627Z,37.07
2019-02-07T23:07:42.515Z,47.20
2019-02-07T23:10:10.860Z,41.30
2019-02-07T23:12:39.183Z,26.37
2019-02-07T23:15:07.955Z,42.70
2019-02-07T23:17:36.352Z,31.47
2019-02-07T23:20:05.758Z,46.00
2019-02-07T23:22:34.318Z,25.70
2019-02-07T23:25:02.655Z,37.33
2019-02-07T23:27:31.019Z,41.37
2019-02-07T23:29:59.756Z,35.63
2019-02-07T23:32:28.105Z,40.00
2019-02-07T23:34:56.513Z,35.77
2019-02-07T23:37:25.229Z,35.73
2019-02-07T23:39:53.553Z,49.87
2019-02-07T23:42:21.927Z,38.80
2019-02-07T23:44:50.416Z,42.87
2019-02-07T23:47:18.852Z,36.17
2019-02-07T23:49:47.355Z,40.30
2019-02-07T23:52:16.758Z,48.60
2019-02-07T23:54:44.557Z,48.33
2019-02-07T23:57:12.980Z,44.57
2019-02-07T23:59:41.561Z,49.67
